createdAt,value
2023-02-20T00:00:10.839Z,4.67
2023-02-20T00:02:37.339Z,5.53
2023-02-20T00:05:03.980Z,2.47
2023-02-20T00:07:30.424Z,2.27
2023-02-20T00:09:56.788Z,4.80
2023-02-20T00:12:23.193Z,2.00
2023-02-20T00:14:49.699Z,2.37
2023-02-20T00:17:16.233Z,3.73
2023-02-20T00:19:42.666Z,3.90
2023-02-20T00:22:09.080Z,4.67
2023-02-20T00:24:35.536Z,2.33
2023-02-20T00:27:01.881Z,3.03
2023-02-20T00:29:28.293Z,4.30
2023-02-20T00:31:57.025Z,2.40
2023-02-20T00:34:26.265Z,6.23
2023-02-20T00:36:52.925Z,3.20
2023-02-20T00:39:19.958Z,4.00
2023-02-20T00:41:46.810Z,4.27
2023-02-20T00:44:13.199Z,1.63
2023-02-20T00:46:39.569Z,3.17
2023-02-20T00:49:05.954Z,3.37
2023-02-20T00:51:33.443Z,3.40
2023-02-20T00:54:00.270Z,5.00
2023-02-20T00:56:26.883Z,1.93
2023-02-20T00:58:53.411Z,3.13
2023-02-20T01:01:19.906Z,2.03
2023-02-20T01:03:46.432Z,4.17
2023-02-20T01:06:13.137Z,7.53
2023-02-20T01:08:39.792Z,5.90
2023-02-20T01:11:06.313Z,4.17
2023-02-20T01:13:32.765Z,3.77
2023-02-20T01:15:59.347Z,4.20
2023-02-20T01:18:26.322Z,4.60
2023-02-20T01:20:52.746Z,4.10
2023-02-20T01:23:19.173Z,4.27
2023-02-20T01:25:45.550Z,3.80
2023-02-20T01:28:12.188Z,4.03
2023-02-20T01:30:38.610Z,2.87
2023-02-20T01:33:05.124Z,1.93
2023-02-20T01:35:32.050Z,2.47
2023-02-20T01:37:59.766Z,2.40
2023-02-20T01:40:27.495Z,3.47
2023-02-20T01:42:54.572Z,3.17
2023-02-20T01:45:23.867Z,3.23
2023-02-20T01:47:55.538Z,1.77
2023-02-20T01:50:27.540Z,3.03
2023-02-20T01:52:58.285Z,1.97
2023-02-20T01:55:29.008Z,7.87
2023-02-20T01:58:00.847Z,3.70
2023-02-20T02:00:27.718Z,3.33
2023-02-20T02:03:02.875Z,2.60
2023-02-20T02:05:30.913Z,4.00
2023-02-20T02:07:59.906Z,2.80
2023-02-20T02:10:32.450Z,5.83
2023-02-20T02:12:58.877Z,2.53
2023-02-20T02:15:25.570Z,3.57
2023-02-20T02:18:01.671Z,3.97
2023-02-20T02:20:40.377Z,3.07
2023-02-20T02:23:33.964Z,5.37
2023-02-20T02:26:20.079Z,2.70
2023-02-20T02:29:08.281Z,5.60
2023-02-20T02:31:46.922Z,2.37
2023-02-20T02:34:35.100Z,4.60
2023-02-20T02:37:13.678Z,2.90
2023-02-20T02:39:59.732Z,6.67
2023-02-20T02:42:57.583Z,5.10
2023-02-20T02:45:35.209Z,5.33
2023-02-20T02:48:12.062Z,1.90
2023-02-20T02:50:41.241Z,4.03
2023-02-20T02:53:09.947Z,2.43
2023-02-20T02:55:37.124Z,5.20
2023-02-20T02:58:05.072Z,4.63
2023-02-20T03:00:51.361Z,3.83
2023-02-20T03:03:38.471Z,3.97
2023-02-20T03:06:11.892Z,7.10
2023-02-20T03:08:43.774Z,3.53
2023-02-20T03:11:15.141Z,3.30
2023-02-20T03:14:07.389Z,2.30
2023-02-20T03:16:54.431Z,3.53
2023-02-20T03:19:27.877Z,1.57
2023-02-20T03:21:57.231Z,1.90
2023-02-20T03:24:26.460Z,2.53
2023-02-20T03:26:56.681Z,2.67
2023-02-20T03:29:30.574Z,3.70
2023-02-20T03:32:28.777Z,2.10
2023-02-20T03:35:16.054Z,4.47
2023-02-20T03:38:03.847Z,4.63
2023-02-20T03:40:50.742Z,3.53
2023-02-20T03:43:25.971Z,2.97
2023-02-20T03:46:02.601Z,2.53
2023-02-20T03:48:39.838Z,3.53
2023-02-20T03:51:25.484Z,4.97
2023-02-20T03:53:52.620Z,2.00
2023-02-20T03:56:23.829Z,6.30
2023-02-20T03:58:55.807Z,5.40
2023-02-20T04:01:25.441Z,2.03
2023-02-20T04:03:55.055Z,5.87
2023-02-20T04:06:24.758Z,2.03
2023-02-20T04:09:03.035Z,2.80
2023-02-20T04:11:48.088Z,2.23
2023-02-20T04:14:17.459Z,2.47
2023-02-20T04:16:48.896Z,1.60
2023-02-20T04:19:15.677Z,2.33
2023-02-20T04:21:48.292Z,2.67
2023-02-20T04:24:21.546Z,5.00
2023-02-20T04:26:48.226Z,2.00
2023-02-20T04:29:15.086Z,6.17
2023-02-20T04:31:41.638Z,5.20
2023-02-20T04:34:08.330Z,1.60
2023-02-20T04:36:34.760Z,11.47
2023-02-20T04:39:01.147Z,2.73
2023-02-20T04:41:27.530Z,3.10
2023-02-20T04:44:16.848Z,4.60
2023-02-20T04:46:43.393Z,3.87
2023-02-20T04:49:09.976Z,3.13
2023-02-20T04:51:36.402Z,3.43
2023-02-20T04:54:02.817Z,6.97
2023-02-20T04:56:29.233Z,2.87
2023-02-20T04:58:55.790Z,3.00
2023-02-20T05:01:22.247Z,6.30
2023-02-20T05:03:48.732Z,2.00
2023-02-20T05:06:15.133Z,1.83
2023-02-20T05:08:41.553Z,4.23
2023-02-20T05:11:08.755Z,3.80
2023-02-20T05:13:35.110Z,3.33
2023-02-20T05:16:01.520Z,2.33
2023-02-20T05:18:29.992Z,3.97
2023-02-20T05:21:15.774Z,3.67
2023-02-20T05:23:42.143Z,3.63
2023-02-20T05:26:10.894Z,4.57
2023-02-20T05:28:39.590Z,3.07
2023-02-20T05:31:07.136Z,2.73
2023-02-20T05:33:33.747Z,3.23
2023-02-20T05:36:00.950Z,3.33
2023-02-20T05:38:27.470Z,4.30
2023-02-20T05:40:54.165Z,6.67
2023-02-20T05:43:20.564Z,5.17
2023-02-20T05:45:47.502Z,2.27
2023-02-20T05:48:14.492Z,4.97
2023-02-20T05:50:40.932Z,3.70
2023-02-20T05:53:07.761Z,3.13
2023-02-20T05:55:34.166Z,5.63
2023-02-20T05:58:00.661Z,6.80
2023-02-20T06:00:27.055Z,2.20
2023-02-20T06:02:53.412Z,5.37
2023-02-20T06:05:19.961Z,3.30
2023-02-20T06:07:47.177Z,3.73
2023-02-20T06:10:17.794Z,7.40
2023-02-20T06:12:44.261Z,2.90
2023-02-20T06:15:10.778Z,11.47
2023-02-20T06:17:37.164Z,5.23
2023-02-20T06:20:03.691Z,3.37
2023-02-20T06:22:30.146Z,3.93
2023-02-20T06:24:56.578Z,3.43
2023-02-20T06:27:22.965Z,3.77
2023-02-20T06:29:49.422Z,8.83
2023-02-20T06:32:16.386Z,4.73
2023-02-20T06:34:45.529Z,4.83
2023-02-20T06:37:12.053Z,6.23
2023-02-20T06:39:39.883Z,5.70
2023-02-20T06:42:06.699Z,3.63
2023-02-20T06:44:33.378Z,2.90
2023-02-20T06:47:00.833Z,5.70
2023-02-20T06:49:27.246Z,3.27
2023-02-20T06:51:54.633Z,8.97
2023-02-20T06:54:22.205Z,2.80
2023-02-20T06:56:48.682Z,5.63
2023-02-20T06:59:15.228Z,6.15
2023-02-20T07:01:43.157Z,5.10
2023-02-20T07:04:17.468Z,6.83
2023-02-20T07:06:43.922Z,7.93
2023-02-20T07:09:10.697Z,6.43
2023-02-20T07:11:37.188Z,5.07
2023-02-20T07:14:03.578Z,7.00
2023-02-20T07:16:31.218Z,3.20
2023-02-20T07:18:57.681Z,5.20
2023-02-20T07:21:24.246Z,5.00
2023-02-20T07:23:50.920Z,3.10
2023-02-20T07:26:26.213Z,3.93
2023-02-20T07:28:54.813Z,3.93
2023-02-20T07:31:21.844Z,5.07
2023-02-20T07:33:48.266Z,8.60
2023-02-20T07:36:15.575Z,10.03
2023-02-20T07:38:42.080Z,4.03
2023-02-20T07:41:10.559Z,3.90
2023-02-20T07:43:37.016Z,6.27
2023-02-20T07:46:03.877Z,4.70
2023-02-20T07:48:30.270Z,9.20
2023-02-20T07:50:56.627Z,6.03
2023-02-20T07:53:23.018Z,4.50
2023-02-20T07:55:49.556Z,7.53
2023-02-20T07:58:15.960Z,4.83
2023-02-20T08:00:42.324Z,5.33
2023-02-20T08:03:08.677Z,5.00
2023-02-20T08:05:48.176Z,4.23
2023-02-20T08:08:15.310Z,5.83
2023-02-20T08:10:41.722Z,4.60
2023-02-20T08:13:08.263Z,2.37
2023-02-20T08:15:34.643Z,3.60
2023-02-20T08:18:01.206Z,4.43
2023-02-20T08:20:27.789Z,4.23
2023-02-20T08:22:54.441Z,6.40
2023-02-20T08:25:20.917Z,6.10
2023-02-20T08:27:49.317Z,6.40
2023-02-20T08:30:26.303Z,4.07
2023-02-20T08:32:54.341Z,2.70
2023-02-20T08:35:24.508Z,7.07
2023-02-20T08:37:51.052Z,6.50
2023-02-20T08:40:17.596Z,3.60
2023-02-20T08:42:44.146Z,3.80
2023-02-20T08:45:11.308Z,6.30
2023-02-20T08:47:38.206Z,2.87
2023-02-20T08:50:05.106Z,4.67
2023-02-20T08:52:31.543Z,3.40
2023-02-20T08:54:57.980Z,4.37
2023-02-20T08:57:24.445Z,4.00
2023-02-20T08:59:50.876Z,3.13
2023-02-20T09:02:19.657Z,1.70
2023-02-20T09:04:47.179Z,4.53
2023-02-20T09:07:14.281Z,3.87
2023-02-20T09:09:41.008Z,1.83
2023-02-20T09:12:10.455Z,3.77
2023-02-20T09:14:37.183Z,1.80
2023-02-20T09:17:04.992Z,1.87
2023-02-20T09:19:31.903Z,5.90
2023-02-20T09:21:58.632Z,1.63
2023-02-20T09:24:25.221Z,2.13
2023-02-20T09:26:51.679Z,2.93
2023-02-20T09:29:18.156Z,1.60
2023-02-20T09:31:44.729Z,7.03
2023-02-20T09:34:11.192Z,5.37
2023-02-20T09:36:37.659Z,5.43
2023-02-20T09:39:04.143Z,2.40
2023-02-20T09:41:49.331Z,5.90
2023-02-20T09:44:24.191Z,3.30
2023-02-20T09:46:53.240Z,2.40
2023-02-20T09:49:26.104Z,4.67
2023-02-20T09:51:56.131Z,3.23
2023-02-20T09:54:40.270Z,3.83
2023-02-20T09:57:13.595Z,1.60
2023-02-20T09:59:44.601Z,3.17
2023-02-20T10:02:24.683Z,5.53
2023-02-20T10:05:01.523Z,2.60
2023-02-20T10:07:34.060Z,2.33
2023-02-20T10:10:16.727Z,2.37
2023-02-20T10:12:54.925Z,5.07
2023-02-20T10:15:26.078Z,2.17
2023-02-20T10:18:23.647Z,4.20
2023-02-20T10:20:53.027Z,1.90
2023-02-20T10:23:40.160Z,2.50
2023-02-20T10:26:19.598Z,1.10
2023-02-20T10:28:49.520Z,5.27
2023-02-20T10:31:30.645Z,4.60
2023-02-20T10:34:03.830Z,2.87
2023-02-20T10:36:37.579Z,1.40
2023-02-20T10:39:12.896Z,5.77
2023-02-20T10:41:59.894Z,0.83
2023-02-20T10:44:26.320Z,1.37
2023-02-20T10:47:04.526Z,1.70
2023-02-20T10:50:03.216Z,3.43
2023-02-20T10:52:37.062Z,4.40
2023-02-20T10:55:10.573Z,2.40
2023-02-20T10:57:41.565Z,0.80
2023-02-20T11:00:14.774Z,4.63
2023-02-20T11:02:48.713Z,2.80
2023-02-20T11:05:20.935Z,2.80
2023-02-20T11:07:48.995Z,3.43
2023-02-20T11:10:16.013Z,2.67
2023-02-20T11:12:56.189Z,3.67
2023-02-20T11:15:26.134Z,1.87
2023-02-20T11:17:55.368Z,1.63
2023-02-20T11:20:35.300Z,1.70
2023-02-20T11:23:02.830Z,3.13
2023-02-20T11:25:34.287Z,1.57
2023-02-20T11:28:17.775Z,1.77
2023-02-20T11:30:47.313Z,1.47
2023-02-20T11:33:25.468Z,4.20
2023-02-20T11:36:20.079Z,2.70
2023-02-20T11:38:48.326Z,3.10
2023-02-20T11:41:32.502Z,7.00
2023-02-20T11:44:22.476Z,1.30
2023-02-20T11:47:09.577Z,3.37
2023-02-20T11:49:36.331Z,1.40
2023-02-20T11:52:16.991Z,5.40
2023-02-20T11:54:43.910Z,2.50
2023-02-20T11:57:16.584Z,2.60
2023-02-20T11:59:44.779Z,1.30
2023-02-20T12:02:17.224Z,1.53
2023-02-20T12:04:59.877Z,1.90
2023-02-20T12:07:33.624Z,1.40
2023-02-20T12:10:10.947Z,2.90
2023-02-20T12:12:37.330Z,2.90
2023-02-20T12:15:06.152Z,2.87
2023-02-20T12:18:00.604Z,1.60
2023-02-20T12:20:29.756Z,1.67
2023-02-20T12:23:01.895Z,2.90
2023-02-20T12:25:54.010Z,3.97
2023-02-20T12:28:35.414Z,1.87
2023-02-20T12:31:33.324Z,1.63
2023-02-20T12:34:17.780Z,2.10
2023-02-20T12:36:58.196Z,0.73
2023-02-20T12:39:53.425Z,2.53
2023-02-20T12:42:41.142Z,1.97
2023-02-20T12:45:44.588Z,1.50
2023-02-20T12:48:27.211Z,1.83
2023-02-20T12:51:05.366Z,4.07
2023-02-20T12:53:59.697Z,5.07
2023-02-20T12:56:54.813Z,1.00
2023-02-20T12:59:28.066Z,0.93
2023-02-20T13:02:01.054Z,1.13
2023-02-20T13:04:36.779Z,0.70
2023-02-20T13:07:09.461Z,1.23
2023-02-20T13:09:42.695Z,1.80
2023-02-20T13:12:15.978Z,0.60
2023-02-20T13:15:17.652Z,0.83
2023-02-20T13:18:06.871Z,3.90
2023-02-20T13:20:47.526Z,1.23
2023-02-20T13:23:16.852Z,0.97
2023-02-20T13:25:48.468Z,0.33
2023-02-20T13:28:20.777Z,1.50
2023-02-20T13:31:21.712Z,2.40
2023-02-20T13:33:50.968Z,0.53
2023-02-20T13:36:43.394Z,1.03
2023-02-20T13:39:21.916Z,3.33
2023-02-20T13:41:54.717Z,1.03
2023-02-20T13:44:36.189Z,1.10
2023-02-20T13:47:10.488Z,4.87
2023-02-20T13:49:59.139Z,1.50
2023-02-20T13:52:45.136Z,0.97
2023-02-20T13:55:11.580Z,2.13
2023-02-20T13:58:16.603Z,3.03
2023-02-20T14:00:55.339Z,0.70
2023-02-20T14:03:25.435Z,1.83
2023-02-20T14:06:21.939Z,1.87
2023-02-20T14:08:49.830Z,0.60
2023-02-20T14:11:33.415Z,1.93
2023-02-20T14:14:06.698Z,1.00
2023-02-20T14:16:40.070Z,2.30
2023-02-20T14:19:13.495Z,0.83
2023-02-20T14:21:40.244Z,0.40
2023-02-20T14:24:22.212Z,1.23
2023-02-20T14:26:49.520Z,1.57
2023-02-20T14:29:25.084Z,0.30
2023-02-20T14:31:54.144Z,2.97
2023-02-20T14:34:35.588Z,2.13
2023-02-20T14:37:14.951Z,0.37
2023-02-20T14:40:03.167Z,2.37
2023-02-20T14:42:29.896Z,0.50
2023-02-20T14:45:05.693Z,1.70
2023-02-20T14:47:32.700Z,2.67
2023-02-20T14:50:19.713Z,1.17
2023-02-20T14:52:46.442Z,3.03
2023-02-20T14:55:18.592Z,6.37
2023-02-20T14:57:45.126Z,1.13
2023-02-20T15:00:20.333Z,2.67
2023-02-20T15:02:49.571Z,3.10
2023-02-20T15:05:21.153Z,2.93
2023-02-20T15:07:47.869Z,1.17
2023-02-20T15:10:35.040Z,1.07
2023-02-20T15:13:07.644Z,2.27
2023-02-20T15:15:36.487Z,0.50
2023-02-20T15:18:17.622Z,0.70
2023-02-20T15:20:46.278Z,0.50
2023-02-20T15:23:24.003Z,2.63
2023-02-20T15:25:50.833Z,0.80
2023-02-20T15:28:17.155Z,1.23
2023-02-20T15:31:08.494Z,1.37
2023-02-20T15:34:01.364Z,1.33
2023-02-20T15:36:28.018Z,3.40
2023-02-20T15:38:56.275Z,1.67
2023-02-20T15:41:24.192Z,1.13
2023-02-20T15:43:51.702Z,0.73
2023-02-20T15:46:19.865Z,4.53
2023-02-20T15:48:46.686Z,2.70
2023-02-20T15:51:17.646Z,5.63
2023-02-20T15:53:45.933Z,0.60
2023-02-20T15:56:13.603Z,0.93
2023-02-20T15:58:42.939Z,1.40
2023-02-20T16:01:11.854Z,1.10
2023-02-20T16:03:50.722Z,0.87
2023-02-20T16:06:19.955Z,1.30
2023-02-20T16:08:46.945Z,0.80
2023-02-20T16:11:14.106Z,1.37
2023-02-20T16:13:44.363Z,2.37
2023-02-20T16:16:32.617Z,1.53
2023-02-20T16:18:59.148Z,1.40
2023-02-20T16:21:25.636Z,4.57
2023-02-20T16:23:52.831Z,2.87
2023-02-20T16:26:22.017Z,3.10
2023-02-20T16:28:55.175Z,1.20
2023-02-20T16:31:21.780Z,1.17
2023-02-20T16:33:49.357Z,1.03
2023-02-20T16:36:24.334Z,1.70
2023-02-20T16:38:51.391Z,3.00
2023-02-20T16:41:17.921Z,5.57
2023-02-20T16:43:44.398Z,0.87
2023-02-20T16:46:10.895Z,1.10
2023-02-20T16:48:37.323Z,1.67
2023-02-20T16:51:06.319Z,2.30
2023-02-20T16:53:32.900Z,2.30
2023-02-20T16:55:59.365Z,1.23
2023-02-20T16:58:26.058Z,2.17
2023-02-20T17:00:57.568Z,1.13
2023-02-20T17:03:25.626Z,1.27
2023-02-20T17:05:58.460Z,3.47
2023-02-20T17:08:25.825Z,2.53
2023-02-20T17:10:52.866Z,1.90
2023-02-20T17:13:19.255Z,3.50
2023-02-20T17:15:47.607Z,5.43
2023-02-20T17:18:15.006Z,3.07
2023-02-20T17:20:41.719Z,2.73
2023-02-20T17:23:08.200Z,4.00
2023-02-20T17:25:34.851Z,5.90
2023-02-20T17:28:01.728Z,2.37
2023-02-20T17:30:28.264Z,6.50
2023-02-20T17:32:54.727Z,9.13
2023-02-20T17:35:21.281Z,8.77
2023-02-20T17:37:47.749Z,9.10
2023-02-20T17:40:15.590Z,3.03
2023-02-20T17:42:42.150Z,4.60
2023-02-20T17:45:09.312Z,4.80
2023-02-20T17:47:37.259Z,4.37
2023-02-20T17:50:04.088Z,4.70
2023-02-20T17:52:30.504Z,2.50
2023-02-20T17:54:57.075Z,8.20
2023-02-20T17:57:23.892Z,2.63
2023-02-20T17:59:50.456Z,3.93
2023-02-20T18:02:18.392Z,6.70
2023-02-20T18:04:45.106Z,5.10
2023-02-20T18:07:12.457Z,3.43
2023-02-20T18:09:39.302Z,3.07
2023-02-20T18:12:06.413Z,3.60
2023-02-20T18:14:33.029Z,5.47
2023-02-20T18:16:59.472Z,5.57
2023-02-20T18:19:27.411Z,10.53
2023-02-20T18:21:53.844Z,9.00
2023-02-20T18:24:25.737Z,8.77
2023-02-20T18:26:53.756Z,3.53
2023-02-20T18:29:21.971Z,13.00
2023-02-20T18:31:49.604Z,14.23
2023-02-20T18:34:16.186Z,21.30
2023-02-20T18:36:42.736Z,12.63
2023-02-20T18:39:09.918Z,9.27
2023-02-20T18:41:37.744Z,9.87
2023-02-20T18:44:04.570Z,15.33
2023-02-20T18:46:36.308Z,16.90
2023-02-20T18:49:04.417Z,10.43
2023-02-20T18:51:33.942Z,6.77
2023-02-20T18:54:00.682Z,11.57
2023-02-20T18:56:28.177Z,9.53
2023-02-20T18:58:55.903Z,10.17
2023-02-20T19:01:23.667Z,12.07
2023-02-20T19:03:52.456Z,18.17
2023-02-20T19:06:25.159Z,14.70
2023-02-20T19:08:51.766Z,14.17
2023-02-20T19:11:18.412Z,12.57
2023-02-20T19:13:44.812Z,12.17
2023-02-20T19:16:11.420Z,6.27
2023-02-20T19:18:49.700Z,6.77
2023-02-20T19:21:16.784Z,8.73
2023-02-20T19:23:43.501Z,10.97
2023-02-20T19:26:11.773Z,7.40
2023-02-20T19:28:39.176Z,6.67
2023-02-20T19:31:05.826Z,4.87
2023-02-20T19:33:32.212Z,7.77
2023-02-20T19:35:58.646Z,6.17
2023-02-20T19:38:25.166Z,9.73
2023-02-20T19:40:51.776Z,9.47
2023-02-20T19:43:18.240Z,8.10
2023-02-20T19:45:44.883Z,11.17
2023-02-20T19:48:11.499Z,5.97
2023-02-20T19:50:37.996Z,9.83
2023-02-20T19:53:04.510Z,6.87
2023-02-20T19:55:31.873Z,7.13
2023-02-20T19:58:00.017Z,10.53
2023-02-20T20:00:28.678Z,7.93
2023-02-20T20:02:58.398Z,10.27
2023-02-20T20:05:25.562Z,6.33
2023-02-20T20:07:52.184Z,8.07
2023-02-20T20:10:21.495Z,11.47
2023-02-20T20:12:47.995Z,10.00
2023-02-20T20:15:25.214Z,11.90
2023-02-20T20:17:58.447Z,8.40
2023-02-20T20:20:25.971Z,6.70
2023-02-20T20:22:55.784Z,7.77
2023-02-20T20:25:24.146Z,9.20
2023-02-20T20:27:52.341Z,7.73
2023-02-20T20:30:23.336Z,11.03
2023-02-20T20:32:51.541Z,13.20
2023-02-20T20:35:19.749Z,10.03
2023-02-20T20:37:46.586Z,10.90
2023-02-20T20:40:17.098Z,7.70
2023-02-20T20:42:44.082Z,12.50
2023-02-20T20:45:13.970Z,8.57
2023-02-20T20:47:42.514Z,6.30
2023-02-20T20:50:10.147Z,9.83
2023-02-20T20:52:36.510Z,6.37
2023-02-20T20:55:03.078Z,10.17
2023-02-20T20:57:32.527Z,6.20
2023-02-20T21:00:00.513Z,8.47
2023-02-20T21:02:28.136Z,11.57
2023-02-20T21:05:09.145Z,13.23
2023-02-20T21:07:37.660Z,6.67
2023-02-20T21:10:04.371Z,9.90
2023-02-20T21:12:30.905Z,11.70
2023-02-20T21:14:57.456Z,7.17
2023-02-20T21:17:24.157Z,8.73
2023-02-20T21:19:50.587Z,7.20
2023-02-20T21:22:16.969Z,9.17
2023-02-20T21:24:43.361Z,13.97
2023-02-20T21:27:09.808Z,7.53
2023-02-20T21:29:36.256Z,10.63
2023-02-20T21:32:03.158Z,15.93
2023-02-20T21:34:29.653Z,7.33
2023-02-20T21:36:56.515Z,10.87
2023-02-20T21:39:24.128Z,9.77
2023-02-20T21:42:10.478Z,8.70
2023-02-20T21:44:39.140Z,10.33
2023-02-20T21:47:09.696Z,10.43
2023-02-20T21:49:41.483Z,12.70
2023-02-20T21:52:07.938Z,6.17
2023-02-20T21:54:34.630Z,7.50
2023-02-20T21:57:01.230Z,8.10
2023-02-20T21:59:27.760Z,7.77
2023-02-20T22:01:54.243Z,13.77
2023-02-20T22:04:21.569Z,7.67
2023-02-20T22:07:07.479Z,8.27
2023-02-20T22:09:52.159Z,10.67
2023-02-20T22:12:37.289Z,9.23
2023-02-20T22:15:23.952Z,7.30
2023-02-20T22:18:09.232Z,8.07
2023-02-20T22:20:54.269Z,6.80
2023-02-20T22:23:38.967Z,7.90
2023-02-20T22:26:24.229Z,5.27
2023-02-20T22:29:09.399Z,6.37
2023-02-20T22:31:54.830Z,9.33
2023-02-20T22:34:40.820Z,8.50
2023-02-20T22:37:25.612Z,7.73
2023-02-20T22:40:10.501Z,9.27
2023-02-20T22:42:55.624Z,6.67
2023-02-20T22:45:40.554Z,6.23
2023-02-20T22:48:25.389Z,8.57
2023-02-20T22:51:10.230Z,7.93
2023-02-20T22:53:55.254Z,6.63
2023-02-20T22:56:41.550Z,5.93
2023-02-20T22:59:26.814Z,10.97
2023-02-20T23:02:12.216Z,7.93
2023-02-20T23:04:57.218Z,7.37
2023-02-20T23:07:42.354Z,7.33
2023-02-20T23:10:27.122Z,7.47
2023-02-20T23:13:11.956Z,11.87
2023-02-20T23:15:57.069Z,13.77
2023-02-20T23:18:41.859Z,13.37
2023-02-20T23:21:26.499Z,14.70
2023-02-20T23:24:11.579Z,14.23
2023-02-20T23:26:56.728Z,10.53
2023-02-20T23:29:41.469Z,12.30
2023-02-20T23:32:26.869Z,11.90
2023-02-20T23:35:12.353Z,18.23
2023-02-20T23:37:57.634Z,13.73
2023-02-20T23:40:42.302Z,14.57
2023-02-20T23:43:27.666Z,11.70
2023-02-20T23:46:13.557Z,11.73
2023-02-20T23:48:58.232Z,15.53
2023-02-20T23:51:43.029Z,12.27
2023-02-20T23:54:27.813Z,11.60
2023-02-20T23:57:13.172Z,11.90
2023-02-20T23:59:58.387Z,11.00
